createdAt,value
2017-02-12T00:00:03.141Z,0.4
2017-02-12T00:05:03.086Z,0.4
2017-02-12T00:10:03.086Z,0.4
2017-02-12T00:15:02.949Z,0.4
2017-02-12T00:20:02.693Z,0.4
2017-02-12T00:25:02.658Z,0.4
2017-02-12T00:30:02.506Z,0.4
2017-02-12T00:35:03.243Z,0.4
2017-02-12T00:40:03.386Z,0.4
2017-02-12T00:45:03.156Z,0.4
2017-02-12T00:50:03.089Z,0.6
2017-02-12T00:55:03.011Z,0.6
2017-02-12T01:00:02.723Z,0.6
2017-02-12T01:05:02.763Z,0.6
2017-02-12T01:10:02.886Z,0.6
2017-02-12T01:15:02.808Z,0.6
2017-02-12T01:20:02.767Z,0.6
2017-02-12T01:25:02.506Z,0.6
2017-02-12T01:30:03.266Z,0.6
2017-02-12T01:35:03.174Z,0.6
2017-02-12T01:40:03.269Z,0.6
2017-02-12T01:45:03.202Z,0.6
2017-02-12T01:50:03.166Z,0.6
2017-02-12T01:55:03.108Z,0.6
2017-02-12T02:00:03.005Z,0.6
2017-02-12T02:05:02.971Z,0.6
2017-02-12T02:10:02.856Z,0.6
2017-02-12T02:15:02.803Z,0.6
2017-02-12T02:20:02.680Z,0.6
2017-02-12T02:25:02.446Z,0.6
2017-02-12T02:30:03.126Z,0.6
2017-02-12T02:35:02.875Z,0.6
2017-02-12T02:40:02.901Z,0.6
2017-02-12T02:45:02.839Z,0.6
2017-02-12T02:50:02.628Z,0.6
2017-02-12T02:55:02.606Z,0.6
2017-02-12T03:00:02.483Z,0.6
2017-02-12T03:05:02.426Z,0.6
2017-02-12T03:10:02.452Z,0.6
2017-02-12T03:15:02.465Z,0.6
2017-02-12T03:20:17.437Z,0.7
2017-02-12T03:25:03.395Z,0.6
2017-02-12T03:30:02.463Z,0.7
2017-02-12T03:35:03.356Z,0.6
2017-02-12T03:40:02.464Z,0.6
2017-02-12T03:45:03.396Z,0.6
2017-02-12T03:50:03.281Z,0.6
2017-02-12T03:55:03.383Z,0.6
2017-02-12T04:00:03.359Z,0.6
2017-02-12T04:05:03.184Z,0.6
2017-02-12T04:10:03.153Z,0.6
2017-02-12T04:15:03.041Z,0.6
2017-02-12T04:20:03.187Z,0.6
2017-02-12T04:25:02.945Z,0.6
2017-02-12T04:30:02.858Z,0.7
2017-02-12T04:35:02.771Z,0.6
2017-02-12T04:40:02.867Z,0.7
2017-02-12T04:45:02.943Z,0.7
2017-02-12T04:50:02.879Z,0.7
2017-02-12T04:55:02.758Z,0.7
2017-02-12T05:00:02.572Z,0.7
2017-02-12T05:05:03.276Z,0.7
2017-02-12T05:10:03.157Z,0.7
2017-02-12T05:15:03.280Z,0.7
2017-02-12T05:20:03.003Z,0.7
2017-02-12T05:25:02.672Z,0.7
2017-02-12T05:30:02.585Z,0.7
2017-02-12T05:35:02.474Z,0.8
2017-02-12T05:40:03.367Z,0.8
2017-02-12T05:45:03.340Z,0.8
2017-02-12T05:50:02.935Z,1.1
2017-02-12T05:55:02.870Z,1.2
2017-02-12T06:00:02.625Z,1.2
2017-02-12T06:05:03.333Z,1.2
2017-02-12T06:10:03.336Z,1.1
2017-02-12T06:15:02.998Z,1.1
2017-02-12T06:20:02.800Z,1.1
2017-02-12T06:25:02.493Z,1.2
2017-02-12T06:30:02.616Z,1.2
2017-02-12T06:35:02.689Z,1.2
2017-02-12T06:40:02.519Z,1.2
2017-02-12T06:45:03.140Z,1.2
2017-02-12T06:50:03.094Z,1.2
2017-02-12T06:55:03.131Z,1.2
2017-02-12T07:00:03.195Z,1.2
2017-02-12T07:05:03.013Z,1.2
2017-02-12T07:10:02.876Z,1.2
2017-02-12T07:15:02.833Z,1.2
2017-02-12T07:20:02.540Z,1.2
2017-02-12T07:25:03.209Z,1.2
2017-02-12T07:30:03.200Z,1.2
2017-02-12T07:35:03.081Z,1.3
2017-02-12T07:40:02.796Z,1.3
2017-02-12T07:45:02.707Z,1.3
2017-02-12T07:50:02.495Z,1.3
2017-02-12T07:55:03.237Z,1.3
2017-02-12T08:00:03.102Z,1.3
2017-02-12T08:05:03.014Z,1.3
2017-02-12T08:10:02.919Z,1.3
2017-02-12T08:15:03.089Z,1.6
2017-02-12T08:20:03.093Z,1.6
2017-02-12T08:25:02.901Z,1.7
2017-02-12T08:30:02.783Z,1.6
2017-02-12T08:35:02.891Z,1.6
2017-02-12T08:40:02.678Z,1.7
2017-02-12T08:45:02.685Z,1.7
2017-02-12T08:50:02.572Z,1.8
2017-02-12T08:55:03.253Z,1.8
2017-02-12T09:00:03.209Z,2.0
2017-02-12T09:05:02.960Z,2.0
2017-02-12T09:10:02.581Z,2.0
2017-02-12T09:15:02.410Z,2.0
2017-02-12T09:20:03.260Z,2.0
2017-02-12T09:25:02.977Z,2.2
2017-02-12T09:30:02.807Z,2.4
2017-02-12T09:35:02.575Z,2.2
2017-02-12T09:40:02.711Z,2.2
2017-02-12T09:45:02.408Z,2.0
2017-02-12T09:50:03.141Z,2.2
2017-02-12T09:55:03.177Z,2.2
2017-02-12T10:00:02.950Z,2.4
2017-02-12T10:05:02.739Z,2.4
2017-02-12T10:10:02.443Z,2.5
2017-02-12T10:15:03.209Z,2.4
2017-02-12T10:20:03.179Z,2.7
2017-02-12T10:25:03.236Z,2.7
2017-02-12T10:30:03.443Z,2.5
2017-02-12T10:35:03.205Z,2.7
2017-02-12T10:40:03.237Z,3.0
2017-02-12T10:45:02.408Z,2.9
2017-02-12T10:50:03.250Z,2.9
2017-02-12T10:55:03.132Z,2.9
2017-02-12T11:00:03.186Z,2.9
2017-02-12T11:05:03.016Z,2.9
2017-02-12T11:10:03.062Z,2.9
2017-02-12T11:15:03.139Z,3.0
2017-02-12T11:20:03.062Z,3.2
2017-02-12T11:25:03.007Z,3.0
2017-02-12T11:30:03.144Z,3.0
2017-02-12T11:35:03.050Z,3.2
2017-02-12T11:40:03.037Z,3.2
2017-02-12T11:45:03.364Z,3.2
2017-02-12T11:50:02.633Z,3.2
2017-02-12T11:55:03.102Z,3.2
2017-02-12T12:00:03.160Z,3.5
2017-02-12T12:05:03.074Z,3.2
2017-02-12T12:10:03.066Z,3.5
2017-02-12T12:15:02.935Z,3.7
2017-02-12T12:20:02.931Z,4.0
2017-02-12T12:25:02.836Z,3.7
2017-02-12T12:30:02.683Z,3.7
2017-02-12T12:35:02.514Z,4.0
2017-02-12T12:40:02.555Z,3.5
2017-02-12T12:45:03.276Z,3.5
2017-02-12T12:50:03.237Z,3.7
2017-02-12T12:55:02.409Z,3.7
2017-02-12T13:00:03.304Z,3.2
2017-02-12T13:05:03.315Z,3.7
2017-02-12T13:10:03.391Z,4.0
2017-02-12T13:15:03.145Z,4.0
2017-02-12T13:20:03.063Z,3.7
2017-02-12T13:25:02.845Z,4.0
2017-02-12T13:30:02.900Z,4.0
2017-02-12T13:35:02.969Z,4.5
2017-02-12T13:40:02.795Z,4.8
2017-02-12T13:45:02.702Z,5.0
2017-02-12T13:50:02.543Z,5.0
2017-02-12T13:55:03.241Z,5.0
2017-02-12T14:00:03.242Z,5.3
2017-02-12T14:05:03.147Z,5.8
2017-02-12T14:10:03.141Z,5.4
2017-02-12T14:15:03.148Z,5.8
2017-02-12T14:20:02.955Z,5.8
2017-02-12T14:25:02.993Z,5.8
2017-02-12T14:30:02.974Z,5.0
2017-02-12T14:35:03.069Z,4.8
2017-02-12T14:40:02.796Z,5.8
2017-02-12T14:45:02.680Z,5.0
2017-02-12T14:50:02.630Z,5.3
2017-02-12T14:55:02.920Z,5.5
2017-02-12T15:00:03.317Z,4.5
2017-02-12T15:05:02.537Z,4.8
2017-02-12T15:10:02.709Z,4.8
2017-02-12T15:15:03.058Z,4.8
2017-02-12T15:20:03.109Z,5.0
2017-02-12T15:25:03.189Z,4.8
2017-02-12T15:30:02.812Z,4.8
2017-02-12T15:35:03.147Z,4.5
2017-02-12T15:40:03.011Z,4.5
2017-02-12T15:45:03.233Z,4.5
2017-02-12T15:50:03.341Z,4.3
2017-02-12T15:55:03.318Z,4.0
2017-02-12T16:00:02.667Z,3.7
2017-02-12T16:05:02.806Z,3.7
2017-02-12T16:10:02.733Z,3.7
2017-02-12T16:15:02.650Z,3.5
2017-02-12T16:20:02.616Z,3.2
2017-02-12T16:25:02.531Z,3.2
2017-02-12T16:30:02.434Z,3.2
2017-02-12T16:35:03.164Z,3.0
2017-02-12T16:40:03.178Z,2.9
2017-02-12T16:45:02.615Z,2.9
2017-02-12T16:50:02.494Z,2.7
2017-02-12T16:55:03.204Z,2.7
2017-02-12T17:00:03.066Z,2.4
2017-02-12T17:05:02.839Z,2.4
2017-02-12T17:10:02.712Z,2.5
2017-02-12T17:15:02.483Z,2.4
2017-02-12T17:20:03.348Z,2.4
2017-02-12T17:25:03.216Z,2.2
2017-02-12T17:30:03.173Z,2.0
2017-02-12T17:35:03.022Z,2.0
2017-02-12T17:40:03.231Z,1.8
2017-02-12T17:45:03.110Z,1.8
2017-02-12T17:50:02.781Z,1.7
2017-02-12T17:55:02.518Z,1.6
2017-02-12T18:00:03.303Z,1.6
2017-02-12T18:05:03.409Z,1.3
2017-02-12T18:10:03.227Z,1.3
2017-02-12T18:15:02.923Z,1.2
2017-02-12T18:20:02.919Z,1.2
2017-02-12T18:25:02.645Z,1.1
2017-02-12T18:30:02.408Z,1.1
2017-02-12T18:35:02.593Z,1.1
2017-02-12T18:40:02.540Z,1.1
2017-02-12T18:45:03.290Z,1.1
2017-02-12T18:50:03.366Z,0.8
2017-02-12T18:55:03.249Z,1.1
2017-02-12T19:00:02.953Z,0.8
2017-02-12T19:05:02.639Z,0.8
2017-02-12T19:10:02.525Z,0.8
2017-02-12T19:15:02.411Z,0.7
2017-02-12T19:20:03.284Z,0.8
2017-02-12T19:25:03.234Z,0.8
2017-02-12T19:30:03.376Z,0.8
2017-02-12T19:35:03.391Z,0.8
2017-02-12T19:40:03.301Z,0.7
2017-02-12T19:45:02.384Z,0.7
2017-02-12T19:50:03.347Z,0.7
2017-02-12T19:55:03.116Z,0.7
2017-02-12T20:00:03.339Z,0.6
2017-02-12T20:05:03.287Z,0.6
2017-02-12T20:10:03.371Z,0.6
2017-02-12T20:15:02.417Z,0.6
2017-02-12T20:20:03.348Z,0.6
2017-02-12T20:25:02.426Z,0.4
2017-02-12T20:30:02.613Z,0.4
2017-02-12T20:35:02.516Z,0.6
2017-02-12T20:40:02.482Z,0.4
2017-02-12T20:45:02.538Z,0.4
2017-02-12T20:50:02.455Z,0.4
2017-02-12T20:55:02.449Z,0.4
2017-02-12T21:00:03.338Z,0.3
2017-02-12T21:05:02.430Z,0.4
2017-02-12T21:10:02.552Z,0.3
2017-02-12T21:15:02.518Z,0.1
2017-02-12T21:20:02.452Z,0.1
2017-02-12T21:25:03.397Z,0.1
2017-02-12T21:30:02.552Z,0.0
2017-02-12T21:35:02.419Z,0.1
2017-02-12T21:40:03.324Z,0.0
2017-02-12T21:45:03.368Z,-0.3
2017-02-12T21:50:02.599Z,0.0
2017-02-12T21:55:02.646Z,0.0
2017-02-12T22:00:02.645Z,0.0
2017-02-12T22:05:02.472Z,0.0
2017-02-12T22:10:02.645Z,0.0
2017-02-12T22:15:02.615Z,0.0
2017-02-12T22:20:02.600Z,-0.3
2017-02-12T22:25:02.485Z,0.0
2017-02-12T22:30:02.452Z,-0.3
2017-02-12T22:35:02.563Z,0.0
2017-02-12T22:40:02.470Z,-0.3
2017-02-12T22:45:02.442Z,0.0
2017-02-12T22:50:03.313Z,-0.3
2017-02-12T22:55:03.271Z,-0.3
2017-02-12T23:00:03.535Z,-0.3
2017-02-12T23:05:02.565Z,-0.3
2017-02-12T23:10:02.762Z,-0.3
2017-02-12T23:15:02.756Z,-0.5
2017-02-12T23:20:02.753Z,-0.5
2017-02-12T23:25:02.714Z,-0.5
2017-02-12T23:30:02.953Z,-0.5
2017-02-12T23:35:02.803Z,-0.5
2017-02-12T23:40:02.667Z,-0.5
2017-02-12T23:45:02.518Z,-0.5
2017-02-12T23:50:02.432Z,-0.5
2017-02-12T23:55:02.489Z,-0.5
